Time;durP1;ratioP1;P1;durP2;ratioP2;P2;SDS_P1;SDS_P2;PMS_P1;PMS_P2;Temp;Humidity;BMP_temperature;BMP_pressure;BME280_temperature;BME280_humidity;BME280_pressure;Samples;Min_cycle;Max_cycle;Signal;HPM_P1;HPM_P2
2022/01/24 00:01:11;;;;;;;7.23;6.63;;;;;;;;;;5972541;29;20251;-64
2022/01/24 00:04:32;;;;;;;7.13;6.43;;;;;;;;;;5985793;29;20239;-63
2022/01/24 00:07:52;;;;;;;6.97;6.37;;;;;;;;;;5984114;29;20239;-63
2022/01/24 00:11:17;;;;;;;6.73;6.13;;;;;;;;;;5979719;29;20243;-63
2022/01/24 00:18:35;;;;;;;8.07;5.37;;;;;;;;;;5972874;29;20232;-63
2022/01/24 00:29:12;;;;;;;6.90;6.00;;;;;;;;;;5980618;29;20247;-64
2022/01/24 00:32:34;;;;;;;6.00;5.60;;;;;;;;;;5985027;29;20649;-63
2022/01/24 00:35:55;;;;;;;6.10;5.60;;;;;;;;;;5983138;29;20331;-64
2022/01/24 00:39:16;;;;;;;6.13;5.63;;;;;;;;;;5978627;29;20240;-64
2022/01/24 00:42:48;;;;;;;7.03;6.30;;;;;;;;;;5975089;29;20243;-63
2022/01/24 00:46:19;;;;;;;7.13;6.43;;;;;;;;;;5979922;29;20243;-63
2022/01/24 00:53:37;;;;;;;7.37;6.77;;;;;;;;;;5964155;29;20323;-64
2022/01/24 00:56:58;;;;;;;7.83;7.23;;;;;;;;;;5977760;29;20327;-63
2022/01/24 01:00:18;;;;;;;8.03;7.33;;;;;;;;;;5981076;29;20240;-64
2022/01/24 01:03:40;;;;;;;8.90;8.00;;;;;;;;;;5978956;29;20243;-62
2022/01/24 01:07:06;;;;;;;7.07;6.37;;;;;;;;;;5981688;29;20232;-64
2022/01/24 01:21:21;;;;;;;7.70;6.90;;;;;;;;;;5985135;29;20512;-63
2022/01/24 01:24:49;;;;;;;7.13;6.53;;;;;;;;;;5977739;29;20263;-63
2022/01/24 01:28:10;;;;;;;7.27;6.57;;;;;;;;;;5983761;29;20262;-63
2022/01/24 01:31:40;;;;;;;7.53;6.93;;;;;;;;;;5981016;29;20330;-62
2022/01/24 01:35:16;;;;;;;6.57;5.97;;;;;;;;;;5974490;29;20679;-63
2022/01/24 01:39:05;;;;;;;6.87;6.27;;;;;;;;;;5982407;29;20506;-64
2022/01/24 01:57:11;;;;;;;7.60;6.80;;;;;;;;;;5982165;29;20670;-63
2022/01/24 02:00:40;;;;;;;8.17;7.53;;;;;;;;;;5976063;29;21267;-63
2022/01/24 02:04:03;;;;;;;8.77;7.27;;;;;;;;;;5977224;29;20774;-63
2022/01/24 02:07:23;;;;;;;8.03;7.20;;;;;;;;;;5970499;29;20274;-62
2022/01/24 02:10:44;;;;;;;10.00;8.33;;;;;;;;;;5979988;29;20251;-63
2022/01/24 02:14:09;;;;;;;9.27;8.13;;;;;;;;;;5980121;29;20247;-63
2022/01/24 02:17:42;;;;;;;10.00;9.10;;;;;;;;;;5982554;29;20232;-63
2022/01/24 02:21:10;;;;;;;8.90;8.00;;;;;;;;;;5979125;29;20231;-64
2022/01/24 02:24:40;;;;;;;9.97;8.97;;;;;;;;;;5979508;29;20562;-63
2022/01/24 02:28:03;;;;;;;8.93;8.10;;;;;;;;;;5978476;29;20601;-64
2022/01/24 02:35:01;;;;;;;9.53;8.73;;;;;;;;;;5979040;29;20621;-63
2022/01/24 02:38:35;;;;;;;9.97;9.07;;;;;;;;;;5980707;29;20232;-63
2022/01/24 02:49:13;;;;;;;9.97;8.50;;;;;;;;;;5979684;29;20251;-63
2022/01/24 02:52:34;;;;;;;9.50;8.70;;;;;;;;;;5979963;29;20520;-62
2022/01/24 02:55:54;;;;;;;9.90;8.90;;;;;;;;;;5982287;29;20243;-64
2022/01/24 02:59:16;;;;;;;9.77;8.77;;;;;;;;;;5980722;29;20244;-62
2022/01/24 03:02:37;;;;;;;9.77;8.80;;;;;;;;;;5979341;29;20228;-63
2022/01/24 03:05:57;;;;;;;10.63;9.63;;;;;;;;;;5978456;29;20618;-62
2022/01/24 03:09:18;;;;;;;9.40;8.60;;;;;;;;;;5982075;29;20259;-63
2022/01/24 03:12:42;;;;;;;10.07;7.93;;;;;;;;;;5978549;29;20607;-62
2022/01/24 03:16:06;;;;;;;8.13;7.40;;;;;;;;;;5978043;29;20232;-62
2022/01/24 03:19:26;;;;;;;8.23;7.50;;;;;;;;;;5981249;29;20244;-64
2022/01/24 03:22:47;;;;;;;8.13;7.43;;;;;;;;;;5973946;29;20265;-63
2022/01/24 03:26:07;;;;;;;8.93;8.13;;;;;;;;;;5981303;29;20661;-63
2022/01/24 03:29:28;;;;;;;7.73;7.07;;;;;;;;;;5986885;29;20334;-63
2022/01/24 03:32:50;;;;;;;7.87;7.17;;;;;;;;;;5982456;29;20235;-62
2022/01/24 03:36:11;;;;;;;8.00;7.40;;;;;;;;;;5985447;29;20656;-63
2022/01/24 03:39:31;;;;;;;7.77;6.97;;;;;;;;;;5984780;29;20224;-62
2022/01/24 03:42:52;;;;;;;7.67;7.07;;;;;;;;;;5983909;29;20240;-62
2022/01/24 03:46:26;;;;;;;7.47;6.60;;;;;;;;;;5985594;29;20265;-64
2022/01/24 03:49:48;;;;;;;7.90;6.80;;;;;;;;;;5979177;29;20247;-63
2022/01/24 03:53:10;;;;;;;7.40;6.70;;;;;;;;;;5981405;29;20556;-63
2022/01/24 03:56:30;;;;;;;7.00;6.30;;;;;;;;;;5981069;29;20244;-63
2022/01/24 03:59:51;;;;;;;6.43;5.90;;;;;;;;;;5989174;29;20252;-62
2022/01/24 04:03:12;;;;;;;7.83;7.13;;;;;;;;;;5985915;29;20572;-62
2022/01/24 04:06:36;;;;;;;7.13;6.53;;;;;;;;;;5982593;29;20232;-64
2022/01/24 04:10:01;;;;;;;7.73;7.03;;;;;;;;;;5978600;29;20243;-63
2022/01/24 04:13:27;;;;;;;7.50;6.20;;;;;;;;;;5984403;29;20228;-62
2022/01/24 04:16:53;;;;;;;8.90;8.10;;;;;;;;;;5978289;29;20256;-63
2022/01/24 04:23:59;;;;;;;7.60;7.00;;;;;;;;;;5975310;29;20231;-63
2022/01/24 04:27:19;;;;;;;10.00;9.00;;;;;;;;;;5979063;29;20263;-63
2022/01/24 04:30:40;;;;;;;8.30;7.60;;;;;;;;;;5979833;29;20323;-63
2022/01/24 04:34:00;;;;;;;7.50;6.77;;;;;;;;;;5972740;29;20621;-63
2022/01/24 04:37:21;;;;;;;7.63;7.00;;;;;;;;;;5985030;29;20240;-62
2022/01/24 04:40:43;;;;;;;8.10;7.30;;;;;;;;;;5984135;29;21426;-63
2022/01/24 04:44:11;;;;;;;7.47;6.87;;;;;;;;;;5979294;29;20236;-63
2022/01/24 04:47:37;;;;;;;8.43;7.60;;;;;;;;;;5977030;29;20235;-61
2022/01/24 04:51:08;;;;;;;8.23;7.53;;;;;;;;;;5986493;29;20227;-63
2022/01/24 04:54:40;;;;;;;10.40;9.40;;;;;;;;;;5979939;29;20350;-62
2022/01/24 04:58:01;;;;;;;9.40;8.50;;;;;;;;;;5976610;29;20654;-62
2022/01/24 05:01:22;;;;;;;10.20;9.30;;;;;;;;;;5988695;29;20232;-65
2022/01/24 05:04:43;;;;;;;11.27;10.03;;;;;;;;;;5982345;29;20244;-62
2022/01/24 05:08:05;;;;;;;10.00;9.00;;;;;;;;;;5983702;29;21041;-63
2022/01/24 05:11:35;;;;;;;9.87;9.07;;;;;;;;;;5981946;29;20267;-63
2022/01/24 05:25:47;;;;;;;9.73;8.83;;;;;;;;;;5981856;29;20323;-63
2022/01/24 05:29:08;;;;;;;10.13;9.13;;;;;;;;;;5977948;29;20251;-62
2022/01/24 05:32:29;;;;;;;11.10;10.03;;;;;;;;;;5980857;29;20276;-63
2022/01/24 05:35:50;;;;;;;10.00;9.00;;;;;;;;;;5984301;29;20236;-63
2022/01/24 05:39:11;;;;;;;12.00;10.90;;;;;;;;;;5980679;29;20247;-63
2022/01/24 05:42:31;;;;;;;11.50;10.40;;;;;;;;;;5984327;29;20522;-61
2022/01/24 05:45:52;;;;;;;11.60;10.40;;;;;;;;;;5980602;29;20323;-63
2022/01/24 05:49:14;;;;;;;12.53;11.33;;;;;;;;;;5980246;29;20240;-63
2022/01/24 05:52:35;;;;;;;12.07;10.97;;;;;;;;;;5981976;29;20240;-63
2022/01/24 05:55:55;;;;;;;13.77;12.47;;;;;;;;;;5982436;29;20680;-63
2022/01/24 05:59:16;;;;;;;12.93;11.13;;;;;;;;;;5982310;29;20236;-63
2022/01/24 06:02:36;;;;;;;12.70;11.43;;;;;;;;;;5967395;29;20231;-64
2022/01/24 06:05:58;;;;;;;12.80;11.70;;;;;;;;;;5981206;29;20563;-62
2022/01/24 06:09:18;;;;;;;13.53;12.30;;;;;;;;;;5980824;29;20239;-63
2022/01/24 06:12:39;;;;;;;13.23;11.93;;;;;;;;;;5978525;29;20243;-64
2022/01/24 06:15:59;;;;;;;15.37;13.77;;;;;;;;;;5978776;29;20224;-63
2022/01/24 06:19:20;;;;;;;15.10;13.53;;;;;;;;;;5972176;29;20236;-63
2022/01/24 06:22:42;;;;;;;15.40;13.97;;;;;;;;;;5974334;29;20239;-63
2022/01/24 06:26:03;;;;;;;16.13;14.43;;;;;;;;;;5977334;29;20228;-62
2022/01/24 06:29:23;;;;;;;16.23;14.50;;;;;;;;;;5977333;29;20235;-64
2022/01/24 06:32:44;;;;;;;15.73;14.07;;;;;;;;;;5979139;29;20240;-63
2022/01/24 06:36:05;;;;;;;16.63;14.93;;;;;;;;;;5969270;29;20641;-62
2022/01/24 06:39:29;;;;;;;16.57;15.03;;;;;;;;;;5966705;29;20263;-62
2022/01/24 06:42:50;;;;;;;17.50;15.23;;;;;;;;;;5968399;29;20240;-64
2022/01/24 06:46:10;;;;;;;17.93;15.97;;;;;;;;;;5980182;29;20239;-64
2022/01/24 06:49:31;;;;;;;16.33;14.73;;;;;;;;;;5976722;29;20243;-65
2022/01/24 06:52:52;;;;;;;15.93;14.33;;;;;;;;;;5972438;29;20243;-62
2022/01/24 06:56:14;;;;;;;16.87;15.23;;;;;;;;;;5974399;29;20606;-63
2022/01/24 06:59:36;;;;;;;16.57;14.87;;;;;;;;;;5979700;29;20557;-64
2022/01/24 07:02:57;;;;;;;16.73;15.03;;;;;;;;;;5976753;29;20274;-64
2022/01/24 07:06:18;;;;;;;16.63;14.63;;;;;;;;;;5975533;29;20234;-64
2022/01/24 07:09:39;;;;;;;17.33;15.63;;;;;;;;;;5977311;29;20235;-66
2022/01/24 07:13:01;;;;;;;15.70;14.17;;;;;;;;;;5976924;29;20244;-65
2022/01/24 07:16:22;;;;;;;18.37;16.63;;;;;;;;;;5982262;29;20318;-65
2022/01/24 07:19:42;;;;;;;20.07;16.10;;;;;;;;;;5978485;29;20255;-65
2022/01/24 07:23:03;;;;;;;18.90;15.70;;;;;;;;;;5979106;29;20235;-65
2022/01/24 07:26:23;;;;;;;19.43;17.43;;;;;;;;;;5977661;29;20614;-66
2022/01/24 07:29:45;;;;;;;17.97;16.10;;;;;;;;;;5970183;29;20231;-64
2022/01/24 07:33:06;;;;;;;18.77;16.40;;;;;;;;;;5970340;29;20252;-65
2022/01/24 07:36:27;;;;;;;21.87;19.77;;;;;;;;;;5973703;29;20326;-66
2022/01/24 07:39:48;;;;;;;19.93;16.97;;;;;;;;;;5981301;29;20346;-66
2022/01/24 07:43:10;;;;;;;21.30;19.10;;;;;;;;;;5982307;29;20243;-65
2022/01/24 07:46:33;;;;;;;19.57;17.47;;;;;;;;;;5977588;29;20342;-64
2022/01/24 07:49:53;;;;;;;21.03;18.83;;;;;;;;;;5975290;29;20228;-64
2022/01/24 07:53:15;;;;;;;21.87;19.57;;;;;;;;;;5974933;29;20240;-63
2022/01/24 07:56:36;;;;;;;24.63;20.27;;;;;;;;;;5974001;29;20581;-63
2022/01/24 07:59:56;;;;;;;21.47;19.17;;;;;;;;;;5975389;29;20231;-65
2022/01/24 08:03:18;;;;;;;20.87;18.77;;;;;;;;;;5977796;29;20244;-65
2022/01/24 08:06:39;;;;;;;23.63;20.00;;;;;;;;;;5982318;29;20236;-65
2022/01/24 08:09:59;;;;;;;24.40;21.80;;;;;;;;;;5976665;29;20232;-66
2022/01/24 08:13:20;;;;;;;25.63;20.67;;;;;;;;;;5981019;29;20752;-65
2022/01/24 08:16:41;;;;;;;27.07;22.73;;;;;;;;;;5970220;29;20718;-63
2022/01/24 08:20:03;;;;;;;28.90;23.77;;;;;;;;;;5980117;29;20339;-65
2022/01/24 08:23:24;;;;;;;25.00;21.93;;;;;;;;;;5967913;29;20244;-64
2022/01/24 08:26:44;;;;;;;26.37;21.97;;;;;;;;;;5978255;29;20634;-64
2022/01/24 08:30:07;;;;;;;26.20;21.80;;;;;;;;;;5974776;29;20326;-65
2022/01/24 08:33:28;;;;;;;23.93;21.03;;;;;;;;;;5977686;29;20236;-64
2022/01/24 08:36:50;;;;;;;28.60;22.67;;;;;;;;;;5975987;29;20606;-65
2022/01/24 08:40:11;;;;;;;26.47;23.43;;;;;;;;;;5969198;29;20243;-64
2022/01/24 08:47:06;;;;;;;26.80;23.53;;;;;;;;;;5981004;29;20232;-65
2022/01/24 08:50:27;;;;;;;29.93;24.47;;;;;;;;;;5978216;29;20243;-65
2022/01/24 08:53:49;;;;;;;33.60;28.03;;;;;;;;;;5979152;29;20231;-63
2022/01/24 08:57:10;;;;;;;31.50;28.03;;;;;;;;;;5981066;29;20240;-63
2022/01/24 09:00:31;;;;;;;38.77;29.97;;;;;;;;;;5971735;29;20326;-64
2022/01/24 09:03:51;;;;;;;31.07;26.57;;;;;;;;;;5974760;29;20631;-65
2022/01/24 09:07:11;;;;;;;32.60;28.30;;;;;;;;;;5977936;29;20316;-66
2022/01/24 09:10:33;;;;;;;31.43;26.90;;;;;;;;;;5982560;29;20232;-63
2022/01/24 09:13:54;;;;;;;36.67;32.13;;;;;;;;;;5978267;29;20611;-65
2022/01/24 09:17:15;;;;;;;32.50;28.33;;;;;;;;;;5981118;29;20260;-66
2022/01/24 09:20:38;;;;;;;34.70;28.83;;;;;;;;;;5976571;29;20238;-65
2022/01/24 09:24:00;;;;;;;33.37;28.30;;;;;;;;;;5979308;29;20866;-66
2022/01/24 09:27:22;;;;;;;34.40;28.30;;;;;;;;;;5975518;29;20650;-65
2022/01/24 09:30:43;;;;;;;33.77;29.30;;;;;;;;;;5979357;29;20610;-65
2022/01/24 09:34:04;;;;;;;33.80;29.63;;;;;;;;;;5965940;29;20258;-64
2022/01/24 09:37:24;;;;;;;37.43;28.60;;;;;;;;;;5984659;29;20307;-65
2022/01/24 09:40:44;;;;;;;36.23;28.50;;;;;;;;;;5980542;29;20239;-65
2022/01/24 09:44:07;;;;;;;33.17;27.37;;;;;;;;;;5978949;29;20240;-64
2022/01/24 09:47:28;;;;;;;38.60;31.60;;;;;;;;;;5976238;29;20240;-64
2022/01/24 09:50:52;;;;;;;31.30;27.63;;;;;;;;;;5980348;29;20244;-64
2022/01/24 09:54:13;;;;;;;29.83;25.23;;;;;;;;;;5979878;29;20260;-64
2022/01/24 09:57:34;;;;;;;35.30;25.63;;;;;;;;;;5973230;29;20796;-64
2022/01/24 10:00:56;;;;;;;36.10;29.53;;;;;;;;;;5975468;29;20537;-65
2022/01/24 10:04:17;;;;;;;31.90;25.80;;;;;;;;;;5971754;29;20574;-64
2022/01/24 10:07:38;;;;;;;33.37;23.90;;;;;;;;;;5977839;29;20619;-64
2022/01/24 10:11:00;;;;;;;30.97;25.23;;;;;;;;;;5982994;29;20236;-66
2022/01/24 10:18:15;;;;;;;26.63;21.50;;;;;;;;;;5978764;29;20330;-64
2022/01/24 10:21:39;;;;;;;29.40;24.73;;;;;;;;;;5977800;29;20232;-64
2022/01/24 10:25:00;;;;;;;29.47;23.87;;;;;;;;;;5979365;29;20231;-63
2022/01/24 10:28:22;;;;;;;27.83;22.93;;;;;;;;;;5976065;29;20244;-64
2022/01/24 10:31:47;;;;;;;27.97;22.80;;;;;;;;;;5976299;29;20241;-66
2022/01/24 10:35:24;;;;;;;26.00;22.67;;;;;;;;;;5976425;29;20584;-64
2022/01/24 10:38:54;;;;;;;26.97;21.50;;;;;;;;;;5975362;29;20235;-63
2022/01/24 10:42:32;;;;;;;27.80;22.50;;;;;;;;;;5978065;29;20235;-64
2022/01/24 10:45:56;;;;;;;26.50;21.43;;;;;;;;;;5978400;29;20569;-63
2022/01/24 10:49:31;;;;;;;23.53;20.60;;;;;;;;;;5978200;29;20271;-64
2022/01/24 10:52:53;;;;;;;21.77;18.27;;;;;;;;;;5975657;29;20406;-65
2022/01/24 10:56:33;;;;;;;23.27;19.23;;;;;;;;;;5979704;29;20326;-64
2022/01/24 11:00:01;;;;;;;22.70;19.93;;;;;;;;;;5978483;29;20546;-64
2022/01/24 11:03:21;;;;;;;27.40;21.87;;;;;;;;;;5970291;29;20496;-64
2022/01/24 11:06:43;;;;;;;24.93;20.40;;;;;;;;;;5983291;29;20326;-64
2022/01/24 11:10:05;;;;;;;24.40;21.07;;;;;;;;;;5979721;29;20239;-64
2022/01/24 11:13:31;;;;;;;25.43;21.83;;;;;;;;;;5978095;29;20870;-64
2022/01/24 11:16:52;;;;;;;24.50;20.87;;;;;;;;;;5978205;29;20227;-64
2022/01/24 11:20:16;;;;;;;28.00;22.70;;;;;;;;;;5979823;29;20541;-63
2022/01/24 11:23:40;;;;;;;28.40;21.17;;;;;;;;;;5977598;29;20243;-64
2022/01/24 11:27:02;;;;;;;27.20;21.53;;;;;;;;;;5978206;29;20232;-65
2022/01/24 11:30:24;;;;;;;24.03;21.27;;;;;;;;;;5978078;29;20240;-64
2022/01/24 11:33:48;;;;;;;31.07;22.50;;;;;;;;;;5981714;29;20240;-65
2022/01/24 11:37:09;;;;;;;27.97;23.60;;;;;;;;;;5975111;29;20327;-64
2022/01/24 11:40:45;;;;;;;27.77;22.60;;;;;;;;;;5977667;29;20248;-64
2022/01/24 11:44:09;;;;;;;31.40;23.33;;;;;;;;;;5975619;29;20240;-64
2022/01/24 11:47:31;;;;;;;28.43;24.87;;;;;;;;;;5973640;29;20239;-65
2022/01/24 11:50:55;;;;;;;33.57;25.37;;;;;;;;;;5975184;29;20248;-64
2022/01/24 11:54:30;;;;;;;31.73;24.50;;;;;;;;;;5980555;29;20244;-64
2022/01/24 11:58:00;;;;;;;38.83;27.53;;;;;;;;;;5978379;29;20252;-63
2022/01/24 12:01:40;;;;;;;28.63;24.33;;;;;;;;;;5970625;29;20391;-64
2022/01/24 12:05:01;;;;;;;32.40;25.63;;;;;;;;;;5979953;29;20251;-64
2022/01/24 12:08:29;;;;;;;37.10;26.90;;;;;;;;;;5986770;29;20330;-64
2022/01/24 12:11:52;;;;;;;33.77;27.27;;;;;;;;;;5978099;29;20243;-65
2022/01/24 12:15:32;;;;;;;38.43;26.67;;;;;;;;;;5976428;29;20715;-64
2022/01/24 12:18:58;;;;;;;36.10;29.07;;;;;;;;;;5980173;29;20244;-65
2022/01/24 12:22:40;;;;;;;38.07;30.80;;;;;;;;;;5979050;29;20240;-64
2022/01/24 12:26:02;;;;;;;39.63;29.97;;;;;;;;;;5985903;29;20520;-66
2022/01/24 12:29:25;;;;;;;40.27;29.63;;;;;;;;;;5981262;29;20622;-66
2022/01/24 12:32:50;;;;;;;39.60;31.07;;;;;;;;;;5978205;29;20247;-65
2022/01/24 12:36:13;;;;;;;45.70;33.30;;;;;;;;;;5981992;29;20236;-66
2022/01/24 12:39:46;;;;;;;42.33;32.03;;;;;;;;;;5983406;29;20235;-66
2022/01/24 12:43:18;;;;;;;46.77;34.53;;;;;;;;;;5981044;29;20481;-64
2022/01/24 12:46:38;;;;;;;49.80;33.70;;;;;;;;;;5980211;29;20573;-64
2022/01/24 12:50:01;;;;;;;45.03;34.07;;;;;;;;;;5977609;29;20512;-63
2022/01/24 12:53:25;;;;;;;43.60;33.27;;;;;;;;;;5980010;29;20524;-67
2022/01/24 12:56:46;;;;;;;41.83;34.33;;;;;;;;;;5974285;29;20232;-64
2022/01/24 13:00:08;;;;;;;42.40;33.17;;;;;;;;;;5966444;29;20260;-66
2022/01/24 13:03:44;;;;;;;48.00;37.23;;;;;;;;;;5964678;29;20251;-64
2022/01/24 13:07:05;;;;;;;45.03;36.23;;;;;;;;;;5983448;29;20231;-64
2022/01/24 13:10:27;;;;;;;49.00;33.23;;;;;;;;;;5973609;29;20248;-64
2022/01/24 13:14:06;;;;;;;42.97;32.03;;;;;;;;;;5972576;29;20838;-64
2022/01/24 13:21:10;;;;;;;38.20;29.60;;;;;;;;;;5970691;29;20228;-64
2022/01/24 13:24:30;;;;;;;36.70;29.77;;;;;;;;;;5973121;29;20232;-65
2022/01/24 13:27:54;;;;;;;36.80;27.40;;;;;;;;;;5979844;29;20231;-64
2022/01/24 13:31:15;;;;;;;37.30;30.93;;;;;;;;;;5979339;29;20241;-64
2022/01/24 13:34:35;;;;;;;41.50;30.50;;;;;;;;;;5962505;29;20244;-64
2022/01/24 13:37:57;;;;;;;39.17;31.00;;;;;;;;;;5968116;29;20241;-64
2022/01/24 13:41:19;;;;;;;37.67;28.67;;;;;;;;;;5970435;29;20232;-64
2022/01/24 13:44:41;;;;;;;39.13;29.50;;;;;;;;;;5963434;29;20243;-63
2022/01/24 13:48:03;;;;;;;37.93;28.63;;;;;;;;;;5969299;29;20227;-63
2022/01/24 13:51:25;;;;;;;39.03;30.40;;;;;;;;;;5967163;29;20564;-64
2022/01/24 13:54:45;;;;;;;37.33;30.07;;;;;;;;;;5967112;29;20236;-65
2022/01/24 13:58:06;;;;;;;32.03;26.00;;;;;;;;;;5964898;29;20249;-65
2022/01/24 14:01:28;;;;;;;32.50;28.93;;;;;;;;;;5969702;29;20237;-65
2022/01/24 14:04:49;;;;;;;40.27;32.30;;;;;;;;;;5962318;29;20666;-64
2022/01/24 14:08:14;;;;;;;37.60;29.93;;;;;;;;;;5970315;29;20236;-65
2022/01/24 14:11:40;;;;;;;35.67;28.40;;;;;;;;;;5975977;29;20236;-65
2022/01/24 14:15:06;;;;;;;35.40;28.17;;;;;;;;;;5973383;29;20580;-64
2022/01/24 14:18:29;;;;;;;37.53;29.90;;;;;;;;;;5977360;29;20323;-64
2022/01/24 14:22:03;;;;;;;36.53;30.90;;;;;;;;;;5978513;29;22016;-64
2022/01/24 14:25:26;;;;;;;36.67;30.63;;;;;;;;;;5974115;29;20334;-64
2022/01/24 14:28:48;;;;;;;36.27;29.47;;;;;;;;;;5980173;29;20235;-65
2022/01/24 14:32:12;;;;;;;35.97;30.27;;;;;;;;;;5980172;29;20228;-64
2022/01/24 14:35:37;;;;;;;35.93;31.53;;;;;;;;;;5973294;29;20236;-65
2022/01/24 14:39:00;;;;;;;34.97;29.03;;;;;;;;;;5980793;29;20511;-64
2022/01/24 14:42:34;;;;;;;37.17;31.13;;;;;;;;;;5976968;29;20240;-64
2022/01/24 14:45:53;;;;;;;37.33;29.40;;;;;;;;;;5974250;29;20256;-63
2022/01/24 14:49:15;;;;;;;35.23;29.30;;;;;;;;;;5978846;29;20602;-64
2022/01/24 14:52:37;;;;;;;34.40;28.07;;;;;;;;;;5969572;29;20667;-66
2022/01/24 14:55:58;;;;;;;34.50;27.90;;;;;;;;;;5974732;29;20239;-65
2022/01/24 14:59:18;;;;;;;37.90;29.97;;;;;;;;;;5975364;29;20247;-64
2022/01/24 15:02:39;;;;;;;34.27;29.27;;;;;;;;;;5967678;29;20228;-65
2022/01/24 15:06:00;;;;;;;36.43;29.67;;;;;;;;;;5973663;29;20638;-64
2022/01/24 15:09:23;;;;;;;33.47;26.30;;;;;;;;;;5967929;29;20239;-63
2022/01/24 15:12:48;;;;;;;30.70;27.23;;;;;;;;;;5971501;29;20850;-64
2022/01/24 15:16:16;;;;;;;32.17;26.97;;;;;;;;;;5985045;29;20256;-64
2022/01/24 15:26:56;;;;;;;33.47;28.13;;;;;;;;;;5978181;29;20326;-64
2022/01/24 15:30:19;;;;;;;36.53;30.20;;;;;;;;;;5978876;29;20243;-65
2022/01/24 15:33:40;;;;;;;36.53;29.80;;;;;;;;;;5980406;29;20240;-66
2022/01/24 15:37:01;;;;;;;30.57;26.40;;;;;;;;;;5979004;29;20236;-65
2022/01/24 15:40:24;;;;;;;33.63;26.17;;;;;;;;;;5985014;29;20656;-65
2022/01/24 15:44:06;;;;;;;34.00;27.77;;;;;;;;;;5979624;29;20682;-64
2022/01/24 15:47:36;;;;;;;25.47;22.70;;;;;;;;;;5982109;29;20232;-65
2022/01/24 15:50:57;;;;;;;32.07;25.23;;;;;;;;;;5983274;29;20363;-66
2022/01/24 15:54:20;;;;;;;25.70;21.87;;;;;;;;;;5983638;29;20570;-64
2022/01/24 15:57:41;;;;;;;25.57;22.67;;;;;;;;;;5980361;29;20244;-64
2022/01/24 16:01:03;;;;;;;22.10;19.50;;;;;;;;;;5974056;29;20243;-64
2022/01/24 16:04:24;;;;;;;21.30;19.13;;;;;;;;;;5987026;29;20351;-65
2022/01/24 16:07:45;;;;;;;22.20;19.27;;;;;;;;;;5986609;29;20235;-64
2022/01/24 16:11:08;;;;;;;22.93;20.33;;;;;;;;;;5982114;29;20236;-64
2022/01/24 16:14:28;;;;;;;21.53;18.07;;;;;;;;;;5985981;29;20263;-64
2022/01/24 16:17:51;;;;;;;20.83;18.63;;;;;;;;;;5981805;29;20239;-64
2022/01/24 16:21:26;;;;;;;21.60;19.40;;;;;;;;;;5975773;29;20243;-64
2022/01/24 16:28:25;;;;;;;22.60;19.07;;;;;;;;;;5977983;29;20236;-64
2022/01/24 16:31:46;;;;;;;25.23;22.85;;;;;;;;;;5974864;29;20772;-64
2022/01/24 16:35:09;;;;;;;21.87;19.67;;;;;;;;;;5981419;29;20623;-64
2022/01/24 16:38:32;;;;;;;19.03;17.13;;;;;;;;;;5980985;29;20326;-64
2022/01/24 16:41:57;;;;;;;18.90;16.10;;;;;;;;;;5983208;29;20228;-64
2022/01/24 16:47:02;;;;;;;20.87;18.57;;;;;;;;;;5978304;29;20239;-64
2022/01/24 16:49:06;;;;;;;19.17;17.17;;;;;;;;;;5971826;29;20240;-65
2022/01/24 16:52:31;;;;;;;18.80;16.90;;;;;;;;;;5977720;29;20244;-66
2022/01/24 16:55:53;;;;;;;20.07;17.83;;;;;;;;;;5978563;29;20380;-62
2022/01/24 16:59:14;;;;;;;22.40;18.47;;;;;;;;;;5968602;29;20248;-64
2022/01/24 17:02:34;;;;;;;19.20;17.20;;;;;;;;;;5975707;29;20236;-64
2022/01/24 17:05:56;;;;;;;18.73;16.73;;;;;;;;;;5974195;29;20229;-65
2022/01/24 17:09:17;;;;;;;19.83;17.77;;;;;;;;;;5980040;29;20507;-64
2022/01/24 17:12:38;;;;;;;19.77;17.63;;;;;;;;;;5976416;29;20331;-64
2022/01/24 17:16:01;;;;;;;17.63;15.77;;;;;;;;;;5976055;29;20284;-63
2022/01/24 17:19:22;;;;;;;20.13;15.47;;;;;;;;;;5974612;29;20833;-65
2022/01/24 17:22:43;;;;;;;18.27;16.40;;;;;;;;;;5968925;29;20235;-64
2022/01/24 17:26:05;;;;;;;19.77;17.80;;;;;;;;;;5966824;29;20303;-64
2022/01/24 17:29:25;;;;;;;21.53;17.67;;;;;;;;;;5979545;29;20239;-64
2022/01/24 17:32:46;;;;;;;21.47;18.33;;;;;;;;;;5972871;29;20573;-64
2022/01/24 17:36:08;;;;;;;19.30;16.20;;;;;;;;;;5977254;29;20336;-65
2022/01/24 17:39:28;;;;;;;22.00;19.63;;;;;;;;;;5975336;29;20244;-64
2022/01/24 17:42:51;;;;;;;21.23;19.00;;;;;;;;;;5975587;29;20326;-65
2022/01/24 17:46:11;;;;;;;20.37;18.00;;;;;;;;;;5978646;29;20319;-66
2022/01/24 17:49:31;;;;;;;20.67;18.03;;;;;;;;;;5972684;29;20497;-66
2022/01/24 17:52:52;;;;;;;21.70;19.17;;;;;;;;;;5972260;29;20587;-65
2022/01/24 17:56:14;;;;;;;21.67;19.37;;;;;;;;;;5972469;29;20236;-64
2022/01/24 17:59:37;;;;;;;21.48;18.40;;;;;;;;;;5976518;29;20762;-64
2022/01/24 18:02:58;;;;;;;20.90;18.70;;;;;;;;;;5973631;29;20575;-65
2022/01/24 18:06:19;;;;;;;21.53;17.33;;;;;;;;;;5977265;29;20907;-64
2022/01/24 18:09:39;;;;;;;21.00;18.43;;;;;;;;;;5972954;29;20251;-63
2022/01/24 18:13:00;;;;;;;21.23;18.97;;;;;;;;;;5978659;29;20275;-65
2022/01/24 18:16:22;;;;;;;20.17;17.97;;;;;;;;;;5980977;29;20263;-63
2022/01/24 18:19:42;;;;;;;21.30;18.93;;;;;;;;;;5978303;29;20311;-64
2022/01/24 18:23:04;;;;;;;20.60;18.03;;;;;;;;;;5976405;29;20628;-64
2022/01/24 18:26:24;;;;;;;21.10;18.03;;;;;;;;;;5977770;29;20270;-63
2022/01/24 18:29:45;;;;;;;23.07;18.87;;;;;;;;;;5974027;29;20236;-63
2022/01/24 18:33:08;;;;;;;21.33;19.03;;;;;;;;;;5977027;29;20243;-65
2022/01/24 18:36:30;;;;;;;22.97;19.80;;;;;;;;;;5971927;29;20621;-65
2022/01/24 18:39:53;;;;;;;23.23;19.43;;;;;;;;;;5976986;29;20983;-64
2022/01/24 18:43:15;;;;;;;22.30;19.90;;;;;;;;;;5973441;29;20255;-64
2022/01/24 18:46:38;;;;;;;22.90;19.70;;;;;;;;;;5971084;29;20240;-64
2022/01/24 18:50:00;;;;;;;23.57;19.60;;;;;;;;;;5975043;29;20536;-64
2022/01/24 18:53:21;;;;;;;24.13;21.53;;;;;;;;;;5974113;29;20231;-63
2022/01/24 18:56:44;;;;;;;26.13;22.20;;;;;;;;;;5982662;29;20239;-64
2022/01/24 19:00:06;;;;;;;23.33;19.83;;;;;;;;;;5976782;29;20239;-65
2022/01/24 19:03:27;;;;;;;21.80;18.93;;;;;;;;;;5973146;29;20248;-65
2022/01/24 19:06:52;;;;;;;22.47;20.07;;;;;;;;;;5978423;29;20232;-63
2022/01/24 19:10:12;;;;;;;24.73;22.00;;;;;;;;;;5974995;29;20235;-63
2022/01/24 19:13:33;;;;;;;23.17;20.80;;;;;;;;;;5975276;29;20243;-64
2022/01/24 19:16:55;;;;;;;22.97;20.57;;;;;;;;;;5976144;29;20240;-63
2022/01/24 19:23:55;;;;;;;26.00;20.73;;;;;;;;;;5969695;29;21349;-65
2022/01/24 19:27:19;;;;;;;22.87;20.47;;;;;;;;;;5972666;29;20235;-64
2022/01/24 19:30:39;;;;;;;23.10;20.33;;;;;;;;;;5980704;29;20227;-65
2022/01/24 19:34:00;;;;;;;24.27;19.77;;;;;;;;;;5976297;29;20517;-64
2022/01/24 19:37:21;;;;;;;22.10;19.80;;;;;;;;;;5978806;29;20535;-64
2022/01/24 19:40:43;;;;;;;22.53;18.50;;;;;;;;;;5966801;29;20286;-64
2022/01/24 19:44:04;;;;;;;25.10;19.80;;;;;;;;;;5978555;29;20236;-64
2022/01/24 19:47:25;;;;;;;24.47;21.60;;;;;;;;;;5971890;29;20626;-63
2022/01/24 19:50:48;;;;;;;22.47;19.53;;;;;;;;;;5966697;29;20334;-63
2022/01/24 19:54:13;;;;;;;24.80;22.13;;;;;;;;;;5971297;29;20510;-65
2022/01/24 19:57:41;;;;;;;25.57;22.50;;;;;;;;;;5972740;29;20268;-62
2022/01/24 20:01:04;;;;;;;24.53;21.93;;;;;;;;;;5974017;29;20246;-64
2022/01/24 20:04:25;;;;;;;25.87;23.07;;;;;;;;;;5963897;29;20236;-63
2022/01/24 20:07:48;;;;;;;24.63;21.37;;;;;;;;;;5971777;29;20635;-63
2022/01/24 20:11:08;;;;;;;23.90;20.33;;;;;;;;;;5967030;29;20239;-65
2022/01/24 20:14:30;;;;;;;28.00;22.57;;;;;;;;;;5976529;29;20228;-64
2022/01/24 20:17:51;;;;;;;24.37;21.77;;;;;;;;;;5981375;29;20232;-65
2022/01/24 20:21:15;;;;;;;25.80;23.00;;;;;;;;;;5976925;29;20236;-65
2022/01/24 20:24:36;;;;;;;28.77;23.00;;;;;;;;;;5980300;29;20322;-65
2022/01/24 20:27:57;;;;;;;24.90;22.20;;;;;;;;;;5968355;29;20800;-65
2022/01/24 20:31:19;;;;;;;24.87;21.87;;;;;;;;;;5976070;29;20232;-65
2022/01/24 20:34:39;;;;;;;27.57;23.57;;;;;;;;;;5977043;29;20295;-64
2022/01/24 20:38:00;;;;;;;25.90;22.97;;;;;;;;;;5973931;29;20514;-65
2022/01/24 20:41:21;;;;;;;27.17;22.37;;;;;;;;;;5979333;29;20623;-65
2022/01/24 20:44:41;;;;;;;25.53;22.77;;;;;;;;;;5976473;29;20240;-65
2022/01/24 20:48:05;;;;;;;29.27;24.10;;;;;;;;;;5977276;29;20330;-65
2022/01/24 20:51:26;;;;;;;27.50;24.50;;;;;;;;;;5980805;29;20235;-64
2022/01/24 20:54:46;;;;;;;27.43;24.20;;;;;;;;;;5980439;29;20580;-64
2022/01/24 20:58:07;;;;;;;29.37;24.43;;;;;;;;;;5978925;29;20244;-65
2022/01/24 21:01:28;;;;;;;29.17;23.90;;;;;;;;;;5977442;29;20531;-65
2022/01/24 21:04:50;;;;;;;28.50;24.90;;;;;;;;;;5978160;29;20243;-64
2022/01/24 21:08:14;;;;;;;29.17;24.17;;;;;;;;;;5980470;29;20302;-64
2022/01/24 21:11:37;;;;;;;31.57;24.53;;;;;;;;;;5978567;29;20243;-65
2022/01/24 21:15:02;;;;;;;27.47;24.47;;;;;;;;;;5974952;29;20247;-64
2022/01/24 21:18:22;;;;;;;29.07;24.97;;;;;;;;;;5969813;29;20243;-65
2022/01/24 21:21:45;;;;;;;28.00;24.77;;;;;;;;;;5976779;29;20322;-64